createdAt,value
2023-04-15T00:02:29.773Z,97099.75
2023-04-15T00:07:32.305Z,97104.91
2023-04-15T00:12:34.123Z,97096.00
2023-04-15T00:17:36.340Z,97097.78
2023-04-15T00:22:38.182Z,97096.00
2023-04-15T00:27:40.729Z,97085.66
2023-04-15T00:32:42.701Z,97081.66
2023-04-15T00:37:46.217Z,97074.88
2023-04-15T00:42:48.362Z,97066.34
2023-04-15T00:47:51.460Z,97069.09
2023-04-15T00:52:53.284Z,97072.47
2023-04-15T00:57:55.125Z,97068.28
2023-04-15T01:02:58.030Z,97063.75
2023-04-15T01:08:00.363Z,97062.94
2023-04-15T01:13:03.717Z,97057.78
2023-04-15T01:18:06.125Z,97052.00
2023-04-15T01:23:08.531Z,97051.00
2023-04-15T01:28:10.918Z,97055.38
2023-04-15T01:33:13.378Z,97046.81
2023-04-15T01:38:15.496Z,97045.03
2023-04-15T01:43:17.880Z,97048.44
2023-04-15T01:48:19.831Z,97046.81
2023-04-15T01:53:21.694Z,97044.22
2023-04-15T01:58:23.532Z,97043.25
2023-04-15T02:03:25.918Z,97031.94
2023-04-15T02:08:28.693Z,97040.50
2023-04-15T02:13:31.814Z,97025.19
2023-04-15T02:18:33.824Z,97029.72
2023-04-15T02:23:35.923Z,97028.75
2023-04-15T02:28:37.812Z,97033.91
2023-04-15T02:33:39.651Z,97026.97
2023-04-15T02:38:47.623Z,97012.44
2023-04-15T02:43:51.010Z,97012.78
2023-04-15T02:48:53.951Z,97020.19
2023-04-15T02:53:58.489Z,97024.56
2023-04-15T02:59:01.058Z,97028.09
2023-04-15T03:04:03.358Z,97016.00
2023-04-15T03:09:05.658Z,97017.94
2023-04-15T03:14:13.172Z,97009.41
2023-04-15T03:19:19.479Z,97002.63
2023-04-15T03:24:21.433Z,97001.81
2023-04-15T03:29:24.060Z,97012.97
2023-04-15T03:34:25.918Z,97005.56
2023-04-15T03:39:27.838Z,97000.56
2023-04-15T03:44:29.867Z,96986.88
2023-04-15T03:49:31.805Z,96980.25
2023-04-15T03:54:33.836Z,96982.84
2023-04-15T03:59:35.674Z,96984.63
2023-04-15T04:04:37.618Z,96974.47
2023-04-15T04:09:40.820Z,96975.63
2023-04-15T04:14:42.695Z,96984.34
2023-04-15T04:19:44.668Z,96982.75
2023-04-15T04:24:46.648Z,96980.00
2023-04-15T04:29:50.074Z,96986.59
2023-04-15T04:34:51.914Z,96995.94
2023-04-15T04:39:53.897Z,96996.56
2023-04-15T04:44:55.688Z,97005.28
2023-04-15T04:49:57.509Z,97023.03
2023-04-15T04:54:59.548Z,97021.69
2023-04-15T05:00:02.156Z,97025.06
2023-04-15T05:05:07.958Z,97022.31
2023-04-15T05:10:10.436Z,97020.53
2023-04-15T05:15:12.401Z,97025.34
2023-04-15T05:20:14.558Z,97033.38
2023-04-15T05:25:17.039Z,97029.28
2023-04-15T05:30:19.183Z,97028.47
2023-04-15T05:35:21.669Z,97032.84
2023-04-15T05:40:23.696Z,97033.28
2023-04-15T05:45:25.616Z,97037.66
2023-04-15T05:50:27.865Z,97046.75
2023-04-15T05:55:29.680Z,97057.06
2023-04-15T06:00:31.441Z,97057.06
2023-04-15T06:05:33.533Z,97062.25
2023-04-15T06:10:36.927Z,97055.47
2023-04-15T06:15:39.003Z,97052.25
2023-04-15T06:20:44.546Z,97053.88
2023-04-15T06:25:46.720Z,97060.00
2023-04-15T06:30:48.669Z,97073.56
2023-04-15T06:35:51.071Z,97067.88
2023-04-15T06:40:52.850Z,97073.03
2023-04-15T06:45:54.743Z,97081.41
2023-04-15T06:50:58.403Z,97078.66
2023-04-15T06:56:00.202Z,97084.44
2023-04-15T07:01:03.978Z,97088.91
2023-04-15T07:06:07.215Z,97092.75
2023-04-15T07:11:09.146Z,97096.97
2023-04-15T07:16:11.362Z,97104.53
2023-04-15T07:21:13.347Z,97099.66
2023-04-15T07:26:15.260Z,97116.88
2023-04-15T07:31:17.556Z,97114.91
2023-04-15T07:36:19.750Z,97120.69
2023-04-15T07:41:22.609Z,97116.78
2023-04-15T07:46:26.906Z,97117.66
2023-04-15T07:51:29.811Z,97125.25
2023-04-15T07:56:31.560Z,97123.47
2023-04-15T08:01:33.416Z,97129.78
2023-04-15T08:06:37.498Z,97124.66
2023-04-15T08:11:39.485Z,97132.41
2023-04-15T08:16:41.540Z,97144.53
2023-04-15T08:21:43.536Z,97156.88
2023-04-15T08:26:46.980Z,97163.03
2023-04-15T08:31:49.248Z,97156.50
2023-04-15T08:36:51.642Z,97166.31
2023-04-15T08:42:05.985Z,97168.72
2023-04-15T08:47:09.356Z,97159.53
2023-04-15T08:52:12.735Z,97165.16
2023-04-15T08:57:15.866Z,97175.41
2023-04-15T09:02:18.206Z,97185.13
2023-04-15T09:07:20.539Z,97186.69
2023-04-15T09:12:22.528Z,97188.09
2023-04-15T09:17:26.990Z,97198.72
2023-04-15T09:22:33.422Z,97192.03
2023-04-15T09:27:37.739Z,97194.91
2023-04-15T09:32:52.612Z,97206.78
2023-04-15T09:38:10.238Z,97210.53
2023-04-15T09:43:17.716Z,97221.88
2023-04-15T09:48:27.467Z,97225.88
2023-04-15T09:53:31.745Z,97233.03
2023-04-15T09:58:35.806Z,97233.47
2023-04-15T10:03:40.221Z,97242.13
2023-04-15T10:08:42.817Z,97249.09
2023-04-15T10:13:49.348Z,97236.88
2023-04-15T10:18:55.694Z,97246.78
2023-04-15T10:23:58.733Z,97252.59
2023-04-15T10:29:01.790Z,97259.09
2023-04-15T10:34:06.626Z,97269.28
2023-04-15T10:39:34.361Z,97262.84
2023-04-15T10:44:43.550Z,97267.56
2023-04-15T10:49:57.203Z,97268.72
2023-04-15T10:55:11.083Z,97267.41
2023-04-15T11:00:14.175Z,97266.16
2023-04-15T11:05:17.743Z,97272.03
2023-04-15T11:10:26.048Z,97282.03
2023-04-15T11:15:33.353Z,97288.66
2023-04-15T11:20:37.696Z,97292.56
2023-04-15T11:25:39.605Z,97302.31
2023-04-15T11:30:42.841Z,97302.56
2023-04-15T11:37:07.216Z,97311.16
2023-04-15T11:42:18.735Z,97312.13
2023-04-15T11:47:24.997Z,97316.88
2023-04-15T11:52:27.334Z,97325.16
2023-04-15T11:57:32.730Z,97334.28
2023-04-15T12:03:13.011Z,97333.47
2023-04-15T12:08:15.030Z,97343.28
2023-04-15T12:13:17.044Z,97347.66
2023-04-15T12:18:48.914Z,97354.44
2023-04-15T12:23:56.207Z,97367.66
2023-04-15T12:49:11.185Z,97388.84
2023-04-15T13:00:39.330Z,97403.94
2023-04-15T13:12:47.068Z,97419.09
2023-04-15T13:18:19.577Z,97422.78
2023-04-15T13:23:21.528Z,97421.44
2023-04-15T13:28:23.680Z,97423.25
2023-04-15T13:33:25.999Z,97426.13
2023-04-15T13:38:30.720Z,97430.59
2023-04-15T13:43:34.453Z,97424.06
2023-04-15T13:49:03.037Z,97433.78
2023-04-15T13:54:05.140Z,97431.03
2023-04-15T13:59:08.783Z,97435.31
2023-04-15T14:04:11.061Z,97440.50
2023-04-15T14:09:14.077Z,97446.44
2023-04-15T14:14:16.561Z,97450.38
2023-04-15T14:19:18.578Z,97462.78
2023-04-15T14:24:22.970Z,97469.31
2023-04-15T14:29:25.136Z,97478.44
2023-04-15T14:34:27.485Z,97474.41
2023-04-15T14:39:29.427Z,97487.94
2023-04-15T14:49:33.077Z,97490.16
2023-04-15T14:54:35.151Z,97495.63
2023-04-15T14:59:36.959Z,97503.22
2023-04-15T15:05:34.376Z,97505.28
2023-04-15T15:10:49.092Z,97512.94
2023-04-15T15:15:52.188Z,97520.81
2023-04-15T15:26:23.550Z,97530.34
2023-04-15T15:31:28.654Z,97541.19
2023-04-15T15:48:41.673Z,97554.72
2023-04-15T15:53:44.950Z,97568.84
2023-04-15T15:58:49.125Z,97569.22
2023-04-15T16:03:51.381Z,97577.38
2023-04-15T16:08:53.414Z,97576.50
2023-04-15T16:13:55.384Z,97584.00
2023-04-15T16:19:00.058Z,97589.94
2023-04-15T16:24:02.359Z,97590.66
2023-04-15T16:29:04.863Z,97596.19
2023-04-15T16:34:07.209Z,97604.97
2023-04-15T16:39:09.205Z,97615.34
2023-04-15T16:44:11.424Z,97613.28
2023-04-15T16:49:13.573Z,97616.41
2023-04-15T16:54:15.594Z,97630.38
2023-04-15T16:59:17.535Z,97633.16
2023-04-15T17:04:19.469Z,97628.75
2023-04-15T17:09:21.750Z,97643.53
2023-04-15T17:14:23.595Z,97644.06
2023-04-15T17:19:26.946Z,97657.38
2023-04-15T17:24:28.962Z,97657.09
2023-04-15T17:29:33.746Z,97666.84
2023-04-15T17:34:50.757Z,97664.59
2023-04-15T17:39:55.458Z,97679.72
2023-04-15T17:44:57.287Z,97678.31
2023-04-15T17:49:59.016Z,97686.63
2023-04-15T17:55:00.810Z,97698.94
2023-04-15T18:00:02.808Z,97705.28
2023-04-15T18:05:14.984Z,97711.16
2023-04-15T18:10:16.965Z,97726.25
2023-04-15T18:15:19.129Z,97729.97
2023-04-15T18:20:23.809Z,97732.28
2023-04-15T18:25:31.314Z,97738.78
2023-04-15T18:30:53.307Z,97740.09
2023-04-15T18:35:56.324Z,97755.03
2023-04-15T18:40:58.795Z,97757.16
2023-04-15T18:46:02.126Z,97768.66
2023-04-15T18:51:04.156Z,97767.41
2023-04-15T18:56:07.236Z,97770.50
2023-04-15T19:01:10.138Z,97775.22
2023-04-15T19:06:13.775Z,97773.94
2023-04-15T19:11:15.873Z,97784.00
2023-04-15T19:16:17.733Z,97797.13
2023-04-15T19:21:22.741Z,97803.59
2023-04-15T19:26:50.147Z,97806.53
2023-04-15T19:31:51.962Z,97818.84
2023-04-15T19:36:54.765Z,97813.19
2023-04-15T19:41:56.672Z,97823.06
2023-04-15T19:46:58.514Z,97830.38
2023-04-15T19:52:04.331Z,97834.28
2023-04-15T19:57:06.609Z,97837.19
2023-04-15T20:02:08.729Z,97840.28
2023-04-15T20:07:10.877Z,97847.41
2023-04-15T20:12:51.281Z,97857.28
2023-04-15T20:17:37.981Z,97858.75
2023-04-15T20:22:39.889Z,97862.78
2023-04-15T20:27:52.177Z,97868.31
2023-04-15T20:32:53.966Z,97871.88
2023-04-15T20:37:55.787Z,97877.38
2023-04-15T20:42:57.650Z,97886.09
2023-04-15T20:47:59.753Z,97884.31
2023-04-15T20:53:01.661Z,97886.09
2023-04-15T20:58:03.524Z,97890.31
2023-04-15T21:03:05.807Z,97899.03
2023-04-15T21:08:07.976Z,97898.22
2023-04-15T21:13:09.842Z,97900.66
2023-04-15T21:18:11.577Z,97912.63
2023-04-15T21:23:13.417Z,97921.22
2023-04-15T21:28:15.262Z,97929.13
2023-04-15T21:33:20.208Z,97930.09
2023-04-15T21:38:23.358Z,97928.50
2023-04-15T21:43:25.845Z,97926.88
2023-04-15T21:48:28.032Z,97935.59
2023-04-15T21:53:30.154Z,97938.34
2023-04-15T21:58:31.985Z,97941.75
2023-04-15T22:03:35.282Z,97942.72
2023-04-15T22:09:11.358Z,97958.25
2023-04-15T22:14:15.926Z,97962.63
2023-04-15T22:19:18.231Z,97964.56
2023-04-15T22:24:32.985Z,97980.25
2023-04-15T22:29:41.753Z,97974.41
2023-04-15T22:34:43.590Z,97981.53
2023-04-15T22:39:45.612Z,97984.94
2023-04-15T22:44:47.802Z,97985.09
2023-04-15T22:49:52.628Z,97995.44
2023-04-15T22:54:54.469Z,97992.22
2023-04-15T22:59:56.310Z,98002.56
2023-04-15T23:04:58.315Z,98002.56
2023-04-15T23:10:01.504Z,98014.53
2023-04-15T23:15:03.859Z,98005.00
2023-04-15T23:20:06.566Z,98008.53
2023-04-15T23:25:10.859Z,98000.94
2023-04-15T23:30:12.708Z,98016.47
2023-04-15T23:40:40.543Z,98020.34
2023-04-15T23:45:51.520Z,98021.16
2023-04-15T23:56:44.563Z,98020.34
